Time;durP1;ratioP1;P1;durP2;ratioP2;P2;SDS_P1;SDS_P2;PMS_P1;PMS_P2;Temp;Humidity;BMP_temperature;BMP_pressure;BME280_temperature;BME280_humidity;BME280_pressure;Samples;Min_cycle;Max_cycle;Signal;HPM_P1;HPM_P2
2022/10/20 00:02:20;;;;;;;;;;;19.30;69.00;;;;;;5052855;28;20301;-63
2022/10/20 00:04:46;;;;;;;;;;;19.30;69.00;;;;;;5053793;28;19978;-63
2022/10/20 00:07:11;;;;;;;;;;;19.30;69.00;;;;;;5069305;28;19925;-63
2022/10/20 00:09:37;;;;;;;;;;;19.30;68.90;;;;;;5052788;28;19925;-65
2022/10/20 00:12:02;;;;;;;;;;;19.30;68.90;;;;;;5053309;28;19944;-63
2022/10/20 00:14:28;;;;;;;;;;;19.30;68.90;;;;;;5053568;28;19960;-62
2022/10/20 00:16:53;;;;;;;;;;;19.30;68.90;;;;;;5053154;28;19931;-63
2022/10/20 00:19:19;;;;;;;;;;;19.20;68.90;;;;;;5053077;28;20416;-63
2022/10/20 00:21:44;;;;;;;;;;;19.30;69.00;;;;;;5053734;28;19999;-63
2022/10/20 00:24:10;;;;;;;;;;;19.20;68.90;;;;;;5052376;28;19924;-63
2022/10/20 00:26:35;;;;;;;;;;;19.20;68.90;;;;;;5053740;28;19972;-63
2022/10/20 00:29:01;;;;;;;;;;;19.20;68.90;;;;;;5052920;28;19932;-63
2022/10/20 00:31:27;;;;;;;;;;;19.20;68.90;;;;;;5067870;28;20451;-63
2022/10/20 00:33:52;;;;;;;;;;;19.20;68.90;;;;;;5053308;28;19925;-63
2022/10/20 00:36:18;;;;;;;;;;;19.20;68.90;;;;;;5052532;28;19932;-63
2022/10/20 00:38:44;;;;;;;;;;;19.20;68.90;;;;;;5053085;28;19925;-63
2022/10/20 00:41:11;;;;;;;;;;;19.20;68.90;;;;;;5068234;28;19932;-63
2022/10/20 00:43:45;;;;;;;;;;;19.20;68.90;;;;;;5067980;28;19924;-63
2022/10/20 00:46:12;;;;;;;;;;;19.20;68.90;;;;;;5053038;28;20009;-63
2022/10/20 00:48:37;;;;;;;;;;;19.20;68.90;;;;;;5068649;28;19932;-63
2022/10/20 00:51:03;;;;;;;;;;;19.20;68.90;;;;;;5067478;28;19925;-63
2022/10/20 00:53:29;;;;;;;;;;;19.20;68.90;;;;;;5052530;28;19925;-63
2022/10/20 00:55:54;;;;;;;;;;;19.20;68.90;;;;;;5052983;28;20388;-63
2022/10/20 00:58:20;;;;;;;;;;;19.20;68.90;;;;;;5067337;28;19931;-63
2022/10/20 01:00:46;;;;;;;;;;;19.10;68.90;;;;;;5052468;28;19924;-64
2022/10/20 01:03:13;;;;;;;;;;;19.20;68.90;;;;;;5050072;28;19925;-63
2022/10/20 01:05:39;;;;;;;;;;;19.10;68.90;;;;;;5052080;28;19925;-64
2022/10/20 01:08:04;;;;;;;;;;;19.20;68.90;;;;;;5052707;28;19929;-64
2022/10/20 01:10:31;;;;;;;;;;;19.20;68.70;;;;;;5052418;28;19925;-64
2022/10/20 01:12:59;;;;;;;;;;;19.10;68.70;;;;;;5067725;28;19925;-63
2022/10/20 01:15:27;;;;;;;;;;;19.20;68.80;;;;;;5067694;28;20023;-64
2022/10/20 01:17:57;;;;;;;;;;;19.10;68.80;;;;;;5051651;28;19960;-63
2022/10/20 01:20:30;;;;;;;;;;;19.20;68.80;;;;;;5067162;28;19986;-63
2022/10/20 01:22:55;;;;;;;;;;;19.20;68.90;;;;;;5067736;28;19929;-63
2022/10/20 01:25:36;;;;;;;;;;;19.20;68.80;;;;;;5052190;28;19932;-63
2022/10/20 01:28:02;;;;;;;;;;;19.20;68.80;;;;;;5052351;28;20323;-64
2022/10/20 01:30:29;;;;;;;;;;;19.20;68.80;;;;;;5067647;28;20296;-64
2022/10/20 01:32:57;;;;;;;;;;;19.20;68.80;;;;;;5051958;28;19925;-64
2022/10/20 01:35:46;;;;;;;;;;;19.20;68.80;;;;;;5034162;28;20269;-64
2022/10/20 01:38:13;;;;;;;;;;;19.20;68.80;;;;;;5043775;28;19925;-64
2022/10/20 01:40:43;;;;;;;;;;;19.20;68.80;;;;;;5068239;28;19932;-63
2022/10/20 01:43:10;;;;;;;;;;;19.20;68.90;;;;;;5071808;28;19924;-64
2022/10/20 01:45:36;;;;;;;;;;;19.20;68.80;;;;;;5072037;28;19971;-64
2022/10/20 01:48:02;;;;;;;;;;;19.20;68.80;;;;;;5071385;28;19976;-63
2022/10/20 01:50:27;;;;;;;;;;;19.20;68.80;;;;;;5071721;28;19933;-64
2022/10/20 01:52:56;;;;;;;;;;;19.20;68.70;;;;;;5071897;28;19932;-64
2022/10/20 01:55:22;;;;;;;;;;;19.30;68.80;;;;;;5055317;28;19932;-64
2022/10/20 01:58:06;;;;;;;;;;;19.30;68.80;;;;;;5056153;28;19925;-63
2022/10/20 02:00:31;;;;;;;;;;;19.30;68.70;;;;;;5052130;28;20384;-63
2022/10/20 02:03:07;;;;;;;;;;;19.30;68.70;;;;;;5035698;28;19925;-64
2022/10/20 02:05:36;;;;;;;;;;;19.30;68.70;;;;;;5035304;28;19936;-63
2022/10/20 02:08:11;;;;;;;;;;;19.30;68.70;;;;;;5054647;28;19932;-64
2022/10/20 02:10:46;;;;;;;;;;;19.30;68.60;;;;;;5055971;28;19925;-64
2022/10/20 02:13:12;;;;;;;;;;;19.30;68.70;;;;;;5055631;28;19928;-64
2022/10/20 02:15:37;;;;;;;;;;;19.30;68.70;;;;;;5070589;28;20035;-63
2022/10/20 02:18:04;;;;;;;;;;;19.30;68.60;;;;;;5071379;28;19928;-63
2022/10/20 02:20:30;;;;;;;;;;;19.30;68.60;;;;;;5055171;28;19976;-63
2022/10/20 02:22:56;;;;;;;;;;;19.30;68.60;;;;;;5070481;28;19984;-63
2022/10/20 02:25:21;;;;;;;;;;;19.40;68.70;;;;;;5070869;28;19932;-63
2022/10/20 02:27:47;;;;;;;;;;;19.30;68.50;;;;;;5071119;28;19924;-63
2022/10/20 02:30:13;;;;;;;;;;;19.40;69.20;;;;;;5054501;28;20458;-63
2022/10/20 02:32:39;;;;;;;;;;;19.40;68.60;;;;;;5055593;28;19925;-63
2022/10/20 02:35:06;;;;;;;;;;;19.40;68.50;;;;;;5070934;28;19940;-63
2022/10/20 02:37:32;;;;;;;;;;;19.40;68.50;;;;;;5070106;28;19925;-63
2022/10/20 02:39:57;;;;;;;;;;;19.40;68.50;;;;;;5054283;28;19932;-64
2022/10/20 02:42:22;;;;;;;;;;;19.40;68.40;;;;;;5054147;28;19931;-63
2022/10/20 02:44:48;;;;;;;;;;;19.40;68.50;;;;;;5053732;28;20348;-63
2022/10/20 02:47:13;;;;;;;;;;;19.40;68.40;;;;;;5053994;28;20369;-63
2022/10/20 02:49:39;;;;;;;;;;;19.40;68.40;;;;;;5053929;28;19924;-63
2022/10/20 02:52:04;;;;;;;;;;;19.40;68.40;;;;;;5052782;28;19935;-63
2022/10/20 02:54:30;;;;;;;;;;;19.50;68.40;;;;;;5069401;28;19955;-63
2022/10/20 02:56:55;;;;;;;;;;;19.40;68.40;;;;;;5054200;28;20323;-63
2022/10/20 02:59:21;;;;;;;;;;;19.40;68.30;;;;;;5035520;28;19925;-63
2022/10/20 03:01:46;;;;;;;;;;;19.50;68.40;;;;;;5054208;28;19979;-63
2022/10/20 03:04:12;;;;;;;;;;;19.40;68.30;;;;;;5052964;28;20345;-63
2022/10/20 03:06:38;;;;;;;;;;;19.40;68.20;;;;;;5054074;28;19925;-64
2022/10/20 03:09:04;;;;;;;;;;;19.40;68.30;;;;;;5053844;28;19924;-63
2022/10/20 03:11:30;;;;;;;;;;;19.50;68.30;;;;;;5052512;28;19925;-63
2022/10/20 03:13:55;;;;;;;;;;;19.50;68.30;;;;;;5053998;28;19932;-63
2022/10/20 03:16:21;;;;;;;;;;;19.50;68.20;;;;;;5053651;28;19925;-63
2022/10/20 03:18:46;;;;;;;;;;;19.50;68.10;;;;;;5053267;28;19931;-63
2022/10/20 03:21:12;;;;;;;;;;;19.50;68.10;;;;;;5053279;28;19947;-64
2022/10/20 03:23:37;;;;;;;;;;;19.50;68.10;;;;;;5035493;28;19924;-64
2022/10/20 03:26:03;;;;;;;;;;;19.50;68.00;;;;;;5053182;28;19964;-64
2022/10/20 03:28:29;;;;;;;;;;;19.60;68.10;;;;;;5053307;28;19925;-64
2022/10/20 03:30:54;;;;;;;;;;;19.60;68.10;;;;;;5053856;28;20368;-64
2022/10/20 03:33:20;;;;;;;;;;;19.60;68.00;;;;;;5052687;28;20341;-63
2022/10/20 03:35:45;;;;;;;;;;;19.60;68.00;;;;;;5035649;28;20023;-63
2022/10/20 03:38:11;;;;;;;;;;;19.60;68.00;;;;;;5027040;28;807656;-64
2022/10/20 03:40:36;;;;;;;;;;;19.60;68.00;;;;;;5067464;28;19932;-63
2022/10/20 03:43:02;;;;;;;;;;;19.60;67.90;;;;;;5054435;28;19964;-63
2022/10/20 03:45:27;;;;;;;;;;;19.60;67.90;;;;;;5054155;28;19933;-63
2022/10/20 03:47:53;;;;;;;;;;;19.60;67.80;;;;;;5053501;28;19964;-64
2022/10/20 03:50:18;;;;;;;;;;;19.70;67.90;;;;;;5053870;28;19925;-63
2022/10/20 03:52:46;;;;;;;;;;;19.70;67.90;;;;;;5054399;28;19970;-64
2022/10/20 03:55:11;;;;;;;;;;;19.70;67.80;;;;;;5053005;28;19925;-63
2022/10/20 03:57:37;;;;;;;;;;;19.70;67.80;;;;;;5054104;28;19925;-63
2022/10/20 04:00:02;;;;;;;;;;;19.70;67.80;;;;;;5053823;28;19932;-63
2022/10/20 04:02:40;;;;;;;;;;;19.70;67.80;;;;;;5045278;28;19933;-63
2022/10/20 04:05:05;;;;;;;;;;;19.70;67.70;;;;;;5066437;28;19976;-63
2022/10/20 04:07:31;;;;;;;;;;;19.70;67.70;;;;;;5052690;28;19957;-64
2022/10/20 04:09:57;;;;;;;;;;;19.80;67.80;;;;;;5053643;28;19928;-61
2022/10/20 04:12:22;;;;;;;;;;;19.80;67.70;;;;;;5052769;28;19931;-61
2022/10/20 04:14:48;;;;;;;;;;;19.80;67.70;;;;;;5068536;28;19925;-61
2022/10/20 04:17:13;;;;;;;;;;;19.80;67.70;;;;;;5053315;28;20011;-62
2022/10/20 04:19:39;;;;;;;;;;;19.80;67.60;;;;;;5053616;28;19925;-61
2022/10/20 04:22:04;;;;;;;;;;;19.80;67.60;;;;;;5034708;28;20292;-61
2022/10/20 04:24:30;;;;;;;;;;;19.80;67.60;;;;;;5052293;28;19929;-62
2022/10/20 04:26:55;;;;;;;;;;;19.80;67.50;;;;;;5067969;28;19932;-62
2022/10/20 04:29:21;;;;;;;;;;;19.80;67.60;;;;;;5052363;28;20032;-61
2022/10/20 04:31:46;;;;;;;;;;;19.80;67.60;;;;;;5053661;28;20403;-62
2022/10/20 04:34:12;;;;;;;;;;;19.80;67.60;;;;;;5052876;28;19924;-61
2022/10/20 04:36:37;;;;;;;;;;;19.80;67.60;;;;;;5052397;28;19925;-61
2022/10/20 04:39:06;;;;;;;;;;;19.90;67.60;;;;;;5053175;28;19925;-61
2022/10/20 04:41:31;;;;;;;;;;;19.90;67.60;;;;;;5053075;28;20006;-61
2022/10/20 04:43:57;;;;;;;;;;;19.90;67.60;;;;;;5052087;28;19975;-61
2022/10/20 04:46:22;;;;;;;;;;;19.90;67.50;;;;;;5052764;28;19925;-62
2022/10/20 04:48:48;;;;;;;;;;;19.90;67.50;;;;;;5068441;28;19925;-61
2022/10/20 04:51:13;;;;;;;;;;;19.90;67.50;;;;;;5051938;28;20423;-61
2022/10/20 04:53:39;;;;;;;;;;;19.90;67.40;;;;;;5053099;28;20031;-61
2022/10/20 04:56:05;;;;;;;;;;;19.90;67.40;;;;;;5053051;28;19928;-61
2022/10/20 04:58:30;;;;;;;;;;;19.90;67.40;;;;;;5034295;28;20449;-61
2022/10/20 05:00:59;;;;;;;;;;;19.90;67.30;;;;;;5053159;28;19925;-63
2022/10/20 05:03:25;;;;;;;;;;;19.90;67.30;;;;;;5052578;28;20512;-62
2022/10/20 05:05:50;;;;;;;;;;;19.90;67.30;;;;;;5051965;28;20380;-61
2022/10/20 05:08:16;;;;;;;;;;;20.00;67.30;;;;;;5052374;28;20015;-61
2022/10/20 05:10:42;;;;;;;;;;;20.00;67.30;;;;;;5051723;28;19925;-62
2022/10/20 05:13:08;;;;;;;;;;;20.00;67.30;;;;;;5052533;28;19929;-62
2022/10/20 05:15:33;;;;;;;;;;;20.00;67.30;;;;;;5052780;28;20444;-62
2022/10/20 05:17:59;;;;;;;;;;;20.00;67.30;;;;;;5052085;28;19928;-61
2022/10/20 05:20:24;;;;;;;;;;;20.00;67.30;;;;;;5052171;28;19944;-61
2022/10/20 05:22:50;;;;;;;;;;;20.00;67.30;;;;;;5052503;28;19977;-62
2022/10/20 05:25:15;;;;;;;;;;;20.00;67.20;;;;;;5051522;28;19928;-62
2022/10/20 05:27:41;;;;;;;;;;;20.00;67.20;;;;;;5052504;28;20047;-61
2022/10/20 05:30:06;;;;;;;;;;;20.00;67.20;;;;;;5052551;28;19924;-61
2022/10/20 05:32:32;;;;;;;;;;;20.00;67.20;;;;;;5051503;28;19956;-61
2022/10/20 05:34:57;;;;;;;;;;;20.00;67.20;;;;;;5052394;28;20018;-62
2022/10/20 05:37:23;;;;;;;;;;;20.00;67.10;;;;;;5051231;28;19932;-61
2022/10/20 05:39:48;;;;;;;;;;;20.00;67.10;;;;;;5051723;28;20007;-61
2022/10/20 05:42:14;;;;;;;;;;;20.10;67.10;;;;;;5052104;28;19925;-62
2022/10/20 05:44:39;;;;;;;;;;;20.10;67.10;;;;;;5052239;28;19925;-62
2022/10/20 05:47:04;;;;;;;;;;;20.10;67.00;;;;;;5051522;28;19932;-62
2022/10/20 05:49:30;;;;;;;;;;;20.10;67.00;;;;;;5051516;28;19924;-62
2022/10/20 05:51:55;;;;;;;;;;;20.10;67.00;;;;;;5052321;28;19929;-62
2022/10/20 05:54:21;;;;;;;;;;;20.10;66.90;;;;;;5051422;28;19924;-62
2022/10/20 05:56:47;;;;;;;;;;;20.10;66.90;;;;;;5052144;28;19931;-62
2022/10/20 05:59:12;;;;;;;;;;;20.10;66.90;;;;;;5052313;28;19928;-62
2022/10/20 06:01:47;;;;;;;;;;;20.10;66.90;;;;;;5051590;28;19924;-62
2022/10/20 06:04:13;;;;;;;;;;;20.10;66.90;;;;;;5052263;28;19925;-62
2022/10/20 06:06:39;;;;;;;;;;;20.10;66.80;;;;;;5052257;28;19960;-62
2022/10/20 06:09:05;;;;;;;;;;;20.10;66.80;;;;;;5051323;28;20323;-62
2022/10/20 06:11:31;;;;;;;;;;;20.10;66.80;;;;;;5051841;28;19947;-62
2022/10/20 06:13:56;;;;;;;;;;;20.20;66.80;;;;;;5051426;28;19929;-62
2022/10/20 06:16:22;;;;;;;;;;;20.10;66.70;;;;;;5052010;28;19925;-63
2022/10/20 06:18:48;;;;;;;;;;;20.20;66.80;;;;;;5052039;28;20430;-63
2022/10/20 06:21:17;;;;;;;;;;;20.20;66.70;;;;;;5066288;28;19928;-63
2022/10/20 06:23:43;;;;;;;;;;;20.20;66.70;;;;;;5052095;28;19975;-63
2022/10/20 06:26:09;;;;;;;;;;;20.20;66.70;;;;;;5066833;28;19989;-63
2022/10/20 06:28:35;;;;;;;;;;;20.20;66.60;;;;;;5055019;28;19925;-63
2022/10/20 06:31:02;;;;;;;;;;;20.10;66.50;;;;;;5055498;28;19925;-64
2022/10/20 06:33:28;;;;;;;;;;;20.20;66.50;;;;;;5070550;28;20388;-63
2022/10/20 06:35:57;;;;;;;;;;;20.20;66.30;;;;;;5054722;28;19947;-63
2022/10/20 06:38:23;;;;;;;;;;;20.20;66.40;;;;;;5055032;28;20011;-63
2022/10/20 06:40:48;;;;;;;;;;;20.20;66.40;;;;;;5055496;28;20047;-63
2022/10/20 06:43:13;;;;;;;;;;;20.20;66.40;;;;;;5054585;28;19925;-63
2022/10/20 06:45:39;;;;;;;;;;;20.20;66.40;;;;;;5055221;28;19924;-63
2022/10/20 06:48:04;;;;;;;;;;;20.20;66.40;;;;;;5055676;28;19925;-63
2022/10/20 06:50:31;;;;;;;;;;;20.20;66.30;;;;;;5053361;28;19947;-63
2022/10/20 06:52:57;;;;;;;;;;;20.20;66.40;;;;;;5055345;28;19931;-63
2022/10/20 06:55:22;;;;;;;;;;;20.20;66.40;;;;;;5054761;28;19924;-63
2022/10/20 06:57:48;;;;;;;;;;;20.20;66.40;;;;;;5054711;28;20023;-64
2022/10/20 07:00:13;;;;;;;;;;;20.20;66.40;;;;;;5055054;28;19925;-62
2022/10/20 07:02:39;;;;;;;;;;;20.30;66.70;;;;;;5055126;28;20292;-63
2022/10/20 07:05:05;;;;;;;;;;;20.20;66.60;;;;;;5054194;28;19967;-63
2022/10/20 07:07:30;;;;;;;;;;;20.20;66.60;;;;;;5054593;28;19929;-63
2022/10/20 07:09:56;;;;;;;;;;;20.30;66.70;;;;;;5055123;28;19929;-62
2022/10/20 07:12:21;;;;;;;;;;;20.30;66.80;;;;;;5053868;28;19925;-63
2022/10/20 07:14:47;;;;;;;;;;;20.30;66.80;;;;;;5054915;28;20426;-63
2022/10/20 07:17:12;;;;;;;;;;;20.30;66.80;;;;;;5053711;28;19935;-62
2022/10/20 07:19:38;;;;;;;;;;;20.30;66.80;;;;;;5054639;28;19971;-64
2022/10/20 07:22:03;;;;;;;;;;;20.30;66.80;;;;;;5054399;28;19925;-64
2022/10/20 07:24:29;;;;;;;;;;;20.30;66.80;;;;;;5053625;28;19924;-63
2022/10/20 07:26:54;;;;;;;;;;;20.30;66.80;;;;;;5054649;28;19924;-64
2022/10/20 07:29:20;;;;;;;;;;;20.30;66.80;;;;;;5054240;28;20051;-63
2022/10/20 07:31:45;;;;;;;;;;;20.30;66.80;;;;;;5054137;28;19929;-64
2022/10/20 07:34:11;;;;;;;;;;;20.30;66.80;;;;;;5054392;28;20368;-64
2022/10/20 07:36:37;;;;;;;;;;;20.30;66.90;;;;;;5069974;28;19924;-64
2022/10/20 07:39:03;;;;;;;;;;;20.40;66.90;;;;;;5066806;28;20292;-64
2022/10/20 07:41:29;;;;;;;;;;;20.40;66.90;;;;;;5053605;28;19935;-64
2022/10/20 07:43:55;;;;;;;;;;;20.30;66.80;;;;;;5052376;28;20016;-64
2022/10/20 07:46:20;;;;;;;;;;;20.40;67.00;;;;;;5051644;28;19931;-64
2022/10/20 07:48:46;;;;;;;;;;;20.40;67.00;;;;;;5053999;28;19929;-66
2022/10/20 07:51:33;;;;;;;;;;;20.40;67.10;;;;;;5053889;28;19975;-65
2022/10/20 07:54:01;;;;;;;;;;;20.40;67.10;;;;;;5053122;28;20403;-64
2022/10/20 07:56:30;;;;;;;;;;;20.40;67.80;;;;;;5053854;28;19935;-65
2022/10/20 07:58:56;;;;;;;;;;;20.40;67.20;;;;;;5054025;28;19929;-64
2022/10/20 08:01:22;;;;;;;;;;;20.40;67.20;;;;;;5035200;28;19932;-65
2022/10/20 08:03:47;;;;;;;;;;;20.40;67.20;;;;;;5054113;28;19925;-65
2022/10/20 08:06:13;;;;;;;;;;;20.50;67.20;;;;;;5053254;28;20019;-64
2022/10/20 08:08:38;;;;;;;;;;;20.50;67.30;;;;;;5053303;28;20368;-64
2022/10/20 08:11:04;;;;;;;;;;;20.50;67.30;;;;;;5053794;28;19925;-65
2022/10/20 08:13:29;;;;;;;;;;;20.50;67.20;;;;;;5052250;28;20011;-64
2022/10/20 08:15:55;;;;;;;;;;;20.50;67.20;;;;;;5053519;28;20381;-64
2022/10/20 08:18:20;;;;;;;;;;;20.50;67.20;;;;;;5053033;28;19932;-63
2022/10/20 08:20:46;;;;;;;;;;;20.50;67.20;;;;;;5052399;28;19929;-64
2022/10/20 08:23:11;;;;;;;;;;;20.50;67.20;;;;;;5053238;28;20023;-66
2022/10/20 08:25:37;;;;;;;;;;;20.50;67.10;;;;;;5053616;28;19929;-64
2022/10/20 08:28:02;;;;;;;;;;;20.50;67.10;;;;;;5052497;28;19932;-64
2022/10/20 08:30:28;;;;;;;;;;;20.50;67.10;;;;;;5053348;28;19996;-63
2022/10/20 08:32:53;;;;;;;;;;;20.50;67.20;;;;;;5053188;28;19925;-64
2022/10/20 08:35:19;;;;;;;;;;;20.50;67.10;;;;;;5051539;28;19972;-64
2022/10/20 08:37:45;;;;;;;;;;;20.50;67.20;;;;;;5052939;28;19924;-64
2022/10/20 08:40:18;;;;;;;;;;;20.50;67.20;;;;;;5052616;28;19979;-64
2022/10/20 08:42:44;;;;;;;;;;;20.50;67.10;;;;;;5067872;28;19968;-64
2022/10/20 08:45:12;;;;;;;;;;;20.50;67.10;;;;;;5052837;28;20010;-63
2022/10/20 08:47:38;;;;;;;;;;;20.50;67.10;;;;;;5052861;28;19929;-63
2022/10/20 08:50:03;;;;;;;;;;;20.50;67.10;;;;;;5066945;28;20296;-63
2022/10/20 08:52:29;;;;;;;;;;;20.50;67.10;;;;;;5052284;28;19986;-64
2022/10/20 08:54:55;;;;;;;;;;;20.50;67.10;;;;;;5052555;28;19925;-64
2022/10/20 08:57:25;;;;;;;;;;;20.50;67.10;;;;;;5051328;28;20019;-63
2022/10/20 08:59:51;;;;;;;;;;;20.50;67.10;;;;;;5068427;28;19948;-63
2022/10/20 09:02:17;;;;;;;;;;;20.60;67.20;;;;;;5052109;28;19928;-63
2022/10/20 09:04:50;;;;;;;;;;;20.50;67.10;;;;;;5050672;28;20304;-62
2022/10/20 09:07:15;;;;;;;;;;;20.50;67.10;;;;;;5064838;28;20379;-62
2022/10/20 09:09:40;;;;;;;;;;;20.50;67.10;;;;;;5052076;28;19931;-62
2022/10/20 09:12:06;;;;;;;;;;;20.50;67.10;;;;;;5051706;28;20218;-62
2022/10/20 09:14:33;;;;;;;;;;;20.50;67.00;;;;;;5059400;28;19929;-64
2022/10/20 09:16:59;;;;;;;;;;;20.50;67.00;;;;;;5041182;28;20356;-64
2022/10/20 09:19:24;;;;;;;;;;;20.50;66.90;;;;;;5061812;28;19983;-65
2022/10/20 09:21:51;;;;;;;;;;;20.50;66.80;;;;;;5036175;28;19982;-66
2022/10/20 09:24:16;;;;;;;;;;;20.50;66.70;;;;;;5064174;28;19936;-65
2022/10/20 09:26:43;;;;;;;;;;;20.50;66.70;;;;;;5052044;28;20007;-64
2022/10/20 09:29:18;;;;;;;;;;;20.50;66.80;;;;;;5052078;28;19925;-67
2022/10/20 09:31:45;;;;;;;;;;;20.50;66.70;;;;;;5050797;28;19976;-64
2022/10/20 09:34:29;;;;;;;;;;;20.50;66.80;;;;;;5050398;28;20296;-64
2022/10/20 09:37:07;;;;;;;;;;;20.50;66.90;;;;;;5031372;28;19925;-63
2022/10/20 09:39:45;;;;;;;;;;;20.50;66.90;;;;;;5051233;28;19932;-65
2022/10/20 09:42:14;;;;;;;;;;;20.50;66.90;;;;;;5051416;28;19928;-64
2022/10/20 09:44:58;;;;;;;;;;;20.50;66.90;;;;;;5066769;28;20387;-64
2022/10/20 09:47:24;;;;;;;;;;;20.50;66.90;;;;;;5033670;28;19925;-64
2022/10/20 09:49:54;;;;;;;;;;;20.50;66.90;;;;;;5067546;28;19999;-64
2022/10/20 09:52:22;;;;;;;;;;;20.50;67.00;;;;;;5066277;28;20364;-64
2022/10/20 09:54:48;;;;;;;;;;;20.50;66.90;;;;;;5051976;28;19956;-64
2022/10/20 09:57:16;;;;;;;;;;;20.50;66.90;;;;;;5067437;28;19932;-64
2022/10/20 09:59:43;;;;;;;;;;;20.50;66.90;;;;;;5047819;28;20403;-64
2022/10/20 10:02:14;;;;;;;;;;;20.50;66.80;;;;;;5045304;28;19929;-64
2022/10/20 10:04:40;;;;;;;;;;;20.50;66.80;;;;;;5052793;28;19925;-64
2022/10/20 10:07:21;;;;;;;;;;;20.50;66.80;;;;;;5039637;28;19997;-64
2022/10/20 10:09:52;;;;;;;;;;;20.50;66.90;;;;;;5050404;28;19933;-64
2022/10/20 10:12:18;;;;;;;;;;;20.50;66.80;;;;;;5054828;28;19925;-65
2022/10/20 10:14:50;;;;;;;;;;;20.50;66.60;;;;;;5037404;28;19925;-64
2022/10/20 10:17:28;;;;;;;;;;;20.40;66.20;;;;;;5037807;28;19924;-64
2022/10/20 10:19:54;;;;;;;;;;;20.40;66.10;;;;;;5070636;28;20353;-65
2022/10/20 10:22:19;;;;;;;;;;;20.40;66.10;;;;;;5054857;28;20003;-65
2022/10/20 10:24:45;;;;;;;;;;;20.40;66.10;;;;;;5037994;28;19925;-65
2022/10/20 10:27:17;;;;;;;;;;;20.40;66.00;;;;;;5036963;28;19931;-65
2022/10/20 10:29:43;;;;;;;;;;;20.40;65.90;;;;;;5038014;28;19925;-65
2022/10/20 10:32:13;;;;;;;;;;;20.40;66.10;;;;;;5055491;28;19931;-64
2022/10/20 10:34:57;;;;;;;;;;;20.40;66.20;;;;;;5054690;28;20351;-65
2022/10/20 10:37:22;;;;;;;;;;;20.40;66.20;;;;;;5055131;28;19925;-65
2022/10/20 10:39:47;;;;;;;;;;;20.40;66.20;;;;;;5055606;28;20005;-68
2022/10/20 10:42:22;;;;;;;;;;;20.40;66.20;;;;;;5054032;28;20361;-65
2022/10/20 10:45:05;;;;;;;;;;;20.40;66.20;;;;;;5055496;28;19925;-65
2022/10/20 10:47:37;;;;;;;;;;;20.40;66.30;;;;;;5055382;28;19925;-64
2022/10/20 10:50:14;;;;;;;;;;;20.40;66.30;;;;;;5054456;28;19925;-64
2022/10/20 10:53:01;;;;;;;;;;;20.30;66.20;;;;;;5037420;28;19925;-65
2022/10/20 10:55:28;;;;;;;;;;;20.40;66.30;;;;;;5019579;28;19968;-63
2022/10/20 10:58:02;;;;;;;;;;;20.40;66.30;;;;;;5037593;28;20012;-64
2022/10/20 11:00:35;;;;;;;;;;;20.40;66.20;;;;;;5052289;28;20292;-63
2022/10/20 11:03:13;;;;;;;;;;;20.40;66.30;;;;;;5064360;28;19971;-62
2022/10/20 11:05:42;;;;;;;;;;;20.40;66.30;;;;;;5053198;28;19924;-64
2022/10/20 11:08:17;;;;;;;;;;;20.40;66.30;;;;;;5029239;28;20283;-64
2022/10/20 11:10:55;;;;;;;;;;;20.40;66.40;;;;;;5066661;28;19920;-64
2022/10/20 11:13:39;;;;;;;;;;;20.30;66.40;;;;;;5047146;28;19932;-63
2022/10/20 11:16:11;;;;;;;;;;;20.40;66.50;;;;;;5050600;28;19925;-64
2022/10/20 11:18:49;;;;;;;;;;;20.40;66.40;;;;;;5062644;28;19929;-64
2022/10/20 11:21:24;;;;;;;;;;;20.40;66.30;;;;;;5036427;28;19932;-64
2022/10/20 11:23:49;;;;;;;;;;;20.40;66.30;;;;;;5035742;28;19974;-64
2022/10/20 11:26:21;;;;;;;;;;;20.40;66.30;;;;;;5054496;28;19972;-64
2022/10/20 11:28:47;;;;;;;;;;;20.40;66.30;;;;;;5037050;28;20032;-64
2022/10/20 11:31:16;;;;;;;;;;;20.40;66.30;;;;;;5035412;28;19985;-64
2022/10/20 11:33:42;;;;;;;;;;;20.40;66.40;;;;;;5054465;28;19925;-64
2022/10/20 11:36:09;;;;;;;;;;;20.40;66.40;;;;;;5052484;28;20277;-63
2022/10/20 11:38:40;;;;;;;;;;;20.40;66.40;;;;;;5031164;28;20324;-64
2022/10/20 11:41:11;;;;;;;;;;;20.40;66.40;;;;;;5049881;28;19925;-64
2022/10/20 11:43:36;;;;;;;;;;;20.40;66.40;;;;;;5049626;28;19955;-64
2022/10/20 11:46:02;;;;;;;;;;;20.40;66.20;;;;;;5034012;28;20007;-64
2022/10/20 11:48:28;;;;;;;;;;;20.30;66.20;;;;;;5034098;28;20441;-63
2022/10/20 11:50:56;;;;;;;;;;;20.30;66.30;;;;;;5034201;28;19925;-63
2022/10/20 11:53:21;;;;;;;;;;;20.30;66.30;;;;;;5033443;28;19947;-64
2022/10/20 11:56:07;;;;;;;;;;;20.30;66.30;;;;;;5034291;28;20373;-64
2022/10/20 11:58:51;;;;;;;;;;;20.30;66.30;;;;;;5032822;28;20396;-64
2022/10/20 12:01:28;;;;;;;;;;;20.30;66.20;;;;;;5032354;28;20000;-64
2022/10/20 12:04:12;;;;;;;;;;;20.30;66.30;;;;;;5049231;28;20024;-64
2022/10/20 12:06:42;;;;;;;;;;;20.30;66.30;;;;;;5033079;28;19925;-64
2022/10/20 12:09:08;;;;;;;;;;;20.30;66.30;;;;;;5049069;28;19925;-64
2022/10/20 12:11:41;;;;;;;;;;;20.30;66.30;;;;;;5049278;28;20338;-64
2022/10/20 12:14:13;;;;;;;;;;;20.20;66.30;;;;;;5048366;28;19936;-64
2022/10/20 12:16:50;;;;;;;;;;;20.30;66.30;;;;;;5034029;28;19925;-64
2022/10/20 12:19:20;;;;;;;;;;;20.20;66.30;;;;;;5048875;28;19925;-63
2022/10/20 12:21:52;;;;;;;;;;;20.20;66.30;;;;;;5048303;28;19947;-63
2022/10/20 12:24:29;;;;;;;;;;;20.20;66.40;;;;;;5045854;28;19925;-64
2022/10/20 12:27:05;;;;;;;;;;;20.20;66.30;;;;;;5052655;28;20411;-63
2022/10/20 12:29:30;;;;;;;;;;;20.20;66.40;;;;;;5053085;28;20400;-63
2022/10/20 12:32:14;;;;;;;;;;;20.20;66.40;;;;;;5053459;28;19958;-64
2022/10/20 12:34:40;;;;;;;;;;;20.10;66.40;;;;;;5052594;28;19925;-64
2022/10/20 12:37:16;;;;;;;;;;;20.10;66.40;;;;;;5068611;28;19928;-63
2022/10/20 12:39:41;;;;;;;;;;;20.10;66.70;;;;;;5053219;28;19924;-63
2022/10/20 12:42:12;;;;;;;;;;;20.10;66.50;;;;;;5052460;28;19929;-63
2022/10/20 12:44:41;;;;;;;;;;;20.10;66.40;;;;;;5068478;28;19932;-63
2022/10/20 12:47:07;;;;;;;;;;;20.10;66.50;;;;;;5052890;28;19933;-63
2022/10/20 12:49:39;;;;;;;;;;;20.10;66.50;;;;;;5052485;28;19950;-63
2022/10/20 12:52:06;;;;;;;;;;;20.10;66.60;;;;;;5068487;28;19925;-63
2022/10/20 12:54:38;;;;;;;;;;;20.00;66.50;;;;;;5053278;28;19932;-63
2022/10/20 12:57:22;;;;;;;;;;;20.00;66.50;;;;;;5052238;28;20020;-63
2022/10/20 12:59:47;;;;;;;;;;;20.00;66.60;;;;;;5052939;28;20367;-63
2022/10/20 13:02:16;;;;;;;;;;;20.00;66.60;;;;;;5051943;28;20395;-63
2022/10/20 13:05:08;;;;;;;;;;;20.00;66.70;;;;;;5053029;28;19932;-64
2022/10/20 13:07:45;;;;;;;;;;;20.00;66.70;;;;;;5029241;28;19925;-63
2022/10/20 13:10:26;;;;;;;;;;;20.00;66.70;;;;;;5033795;28;20442;-63
2022/10/20 13:12:52;;;;;;;;;;;20.00;66.70;;;;;;5051835;28;20352;-63
2022/10/20 13:15:18;;;;;;;;;;;20.00;66.70;;;;;;5068099;28;20015;-64
2022/10/20 13:17:51;;;;;;;;;;;20.00;66.70;;;;;;5067585;28;19925;-63
2022/10/20 13:20:36;;;;;;;;;;;19.90;66.70;;;;;;5067719;28;19971;-63
2022/10/20 13:23:01;;;;;;;;;;;19.90;66.70;;;;;;5052099;28;19972;-64
2022/10/20 13:25:45;;;;;;;;;;;19.90;66.80;;;;;;5067862;28;20021;-63
2022/10/20 13:28:11;;;;;;;;;;;19.90;66.80;;;;;;5067890;28;19924;-64
2022/10/20 13:30:36;;;;;;;;;;;19.90;66.70;;;;;;5051730;28;19935;-63
2022/10/20 13:33:22;;;;;;;;;;;19.90;66.80;;;;;;5067968;28;19931;-63
2022/10/20 13:35:50;;;;;;;;;;;19.90;66.80;;;;;;5051924;28;19929;-63
2022/10/20 13:38:19;;;;;;;;;;;19.90;66.80;;;;;;5055552;28;19968;-63
2022/10/20 13:41:00;;;;;;;;;;;19.90;66.80;;;;;;5056959;28;20433;-64
2022/10/20 13:43:25;;;;;;;;;;;19.90;66.90;;;;;;5071856;28;19928;-63
2022/10/20 13:46:04;;;;;;;;;;;19.90;66.90;;;;;;5038168;28;19932;-63
2022/10/20 13:48:48;;;;;;;;;;;19.90;66.90;;;;;;5056196;28;19937;-64
2022/10/20 13:51:15;;;;;;;;;;;19.90;66.90;;;;;;5055260;28;19925;-63
2022/10/20 13:53:41;;;;;;;;;;;19.90;67.00;;;;;;5056604;28;19925;-63
2022/10/20 13:56:27;;;;;;;;;;;20.00;67.00;;;;;;5055789;28;19931;-64
2022/10/20 13:58:56;;;;;;;;;;;20.00;67.00;;;;;;5027300;28;20384;-64
2022/10/20 14:01:23;;;;;;;;;;;20.00;67.00;;;;;;5056058;28;19933;-64
2022/10/20 14:03:49;;;;;;;;;;;20.00;67.00;;;;;;5056082;28;19932;-63
2022/10/20 14:06:31;;;;;;;;;;;20.00;67.00;;;;;;5054977;28;19935;-64
2022/10/20 14:08:57;;;;;;;;;;;20.00;66.90;;;;;;5056278;28;19932;-64
2022/10/20 14:11:22;;;;;;;;;;;20.00;67.00;;;;;;5056073;28;19931;-64
2022/10/20 14:13:48;;;;;;;;;;;20.00;67.00;;;;;;5070625;28;19924;-64
2022/10/20 14:16:20;;;;;;;;;;;20.00;66.90;;;;;;5071195;28;19982;-64
2022/10/20 14:18:58;;;;;;;;;;;20.00;66.90;;;;;;5071388;28;19925;-64
2022/10/20 14:21:27;;;;;;;;;;;20.00;66.90;;;;;;5037216;28;19992;-64
2022/10/20 14:23:53;;;;;;;;;;;20.00;66.90;;;;;;5071135;28;19925;-64